Aviation Digital Data Service (ADDS)

Output produced by METARs form (1836 UTC 22 May 2019)
found at http://aviationweather.gov/metar/data/
 
UWSS 221800Z 21004MPS CAVOK 19/06 Q1013 R12/010095 NOSIG RMK QFE748
TAF UWSS 221700Z 2218/2303 22003G08MPS 9999 BKN040 
     TEMPO 2218/2303 18003MPS BKN020